Vremea acum in Drăgășani - Romania

Vrei sa afli care e starea vremii acum in Olt - Romania? Dorim sa iti furnizam starea vremii pentru Olt - Romania. Starea vremii Olt - Romania pentru astazi.

Vremea acum in Drăgășani

Temperatura: 15 °C

Este: Averse de ploaie
Se simte ca: 14.2 °C
Innorat: 100 %
Precipitatii: 100 %
Presiune atmosferica: 1014 hPa
Umiditate: 100%
Vizibilitate: 1.9 km
Vantul bate din ENE cu 14 km/h

Evolutia vremii in Drăgășani pe ore

Ora: 12:00
Ploi usoare
Temperatura: 16.2°C
Sansa de precipitatii: 100%
Ora Descriere Temp Se simte Precipitatii Umiditate Vant
00:00Ploi usoare15.5°15.5°100%93%WSW 15.8 KM/H
01:00Ploi usoare15.2°15.2°100%94%W 15.5 KM/H
02:00Patchy rain nearby15.3°15.3°100%93%WNW 17.6 KM/H
03:00Patchy rain nearby15.2°15.2°74%91%NW 16.6 KM/H
04:00Innorat15°14.1°0%92%NNW 14.8 KM/H
05:00Patchy rain nearby14.6°14°100%93%NNW 11.5 KM/H
06:00Patchy rain nearby14.7°14.7°74%94%N 7.6 KM/H
07:00Ploi usoare15.1°15.1°100%93%NE 4.3 KM/H
08:00Patchy rain nearby15.7°15.7°100%90%E 7.9 KM/H
09:00Ploi usoare15.5°15.5°100%87%E 12.2 KM/H
10:00Averse de ploaie15°13.8°100%100%ENE 14 KM/H
11:00Burniță ușoară14.9°14.3°100%89%E 11.9 KM/H
12:00Ploi usoare16.2°16.2°100%84%E 10.8 KM/H
13:00Patchy rain nearby16.6°16.6°100%81%E 8.6 KM/H
14:00Patchy rain nearby17°17°100%78%ESE 5.4 KM/H
15:00Patchy rain nearby17.4°17.4°77%76%SSE 1.4 KM/H
16:00Patchy rain nearby17.5°17.5°100%76%W 3.2 KM/H
17:00Ploi usoare17.5°17.5°100%78%WNW 4.3 KM/H
18:00Ploi usoare17.3°17.3°100%81%NW 5.8 KM/H
19:00Ploi usoare16.5°16.5°100%86%NW 7.9 KM/H
20:00Ploi usoare15.8°15.8°100%90%NW 8.6 KM/H
21:00Ploi usoare15.1°15.1°100%93%NW 9.4 KM/H
22:00Patchy rain nearby14.9°14.6°100%94%NW 9.4 KM/H
23:00Ceata14.8°14.6°100%94%NW 8.3 KM/H




tutorials